Current Weather

Tokyo Intl

Tokyo Intl, Japan (RJTT)

Report from: Sunday, November 27, 2022 5:00 PM JST
Current time: Sunday, November 27, 2022 5:39 PM JST

Nearby weather
Weather history
Weather forecast

Temperature17.0°C (62.6°F)
Dew point4.0°C (39.2°F)
Winds 7 kts (3.6 m/s, 8.1 mph) North (10°)
Visibility6.2 mi. (10 km)
Clouds Few clouds 6,000 ft. (1,829 m)
Altimeter30.09 in.Hg (1019 mB)
Relative humidity42 %
Density altitude163 ft. (50 m)
Remarks No significant changes expected in the next two hours
Flight conditions Visual Meteorological Conditions
Raw dataRJTT 270800Z 01007KT 9999 FEW060 17/04 Q1019 NOSIG RMK 2SC060 A3011
An error has occurred. This application may no longer respond until reloaded. Reload 🗙